createdAt,value
2022-09-20T00:01:35.938Z,1.90
2022-09-20T00:04:06.991Z,2.50
2022-09-20T00:06:36.176Z,2.30
2022-09-20T00:09:05.317Z,2.20
2022-09-20T00:11:35.389Z,2.03
2022-09-20T00:14:08.468Z,2.00
2022-09-20T00:16:40.260Z,2.27
2022-09-20T00:19:09.955Z,1.60
2022-09-20T00:21:38.128Z,2.50
2022-09-20T00:24:06.547Z,2.43
2022-09-20T00:26:34.869Z,2.37
2022-09-20T00:29:04.384Z,2.30
2022-09-20T00:31:32.507Z,2.37
2022-09-20T00:34:18.053Z,2.33
2022-09-20T00:36:46.432Z,2.57
2022-09-20T00:39:15.924Z,3.43
2022-09-20T00:41:43.970Z,2.77
2022-09-20T00:44:45.487Z,1.90
2022-09-20T00:47:20.064Z,1.90
2022-09-20T00:49:48.477Z,2.03
2022-09-20T00:52:17.721Z,2.63
2022-09-20T00:54:46.251Z,2.27
2022-09-20T00:57:14.444Z,2.70
2022-09-20T00:59:47.933Z,1.70
2022-09-20T01:02:19.255Z,2.27
2022-09-20T01:04:49.141Z,3.17
2022-09-20T01:07:22.279Z,2.77
2022-09-20T01:09:50.674Z,2.97
2022-09-20T01:12:22.983Z,2.57
2022-09-20T01:14:53.583Z,2.90
2022-09-20T01:17:24.198Z,2.37
2022-09-20T01:20:06.005Z,2.57
2022-09-20T01:22:49.030Z,2.30
2022-09-20T01:25:24.205Z,2.90
2022-09-20T01:27:54.833Z,2.27
2022-09-20T01:30:25.666Z,2.70
2022-09-20T01:33:10.576Z,1.70
2022-09-20T01:35:40.800Z,1.97
2022-09-20T01:38:25.769Z,2.40
2022-09-20T01:41:04.044Z,2.03
2022-09-20T01:43:38.528Z,2.00
2022-09-20T01:46:19.884Z,1.93
2022-09-20T01:48:51.180Z,1.90
2022-09-20T01:51:50.213Z,2.33
2022-09-20T01:55:00.757Z,2.07
2022-09-20T01:57:45.863Z,2.40
2022-09-20T02:00:19.181Z,1.97
2022-09-20T02:03:24.249Z,2.20
2022-09-20T02:06:19.463Z,2.50
2022-09-20T02:09:35.575Z,2.03
2022-09-20T02:12:33.667Z,2.20
2022-09-20T02:15:12.275Z,2.33
2022-09-20T02:17:54.799Z,2.33
2022-09-20T02:20:40.700Z,2.57
2022-09-20T02:23:17.618Z,3.07
2022-09-20T02:26:02.212Z,2.73
2022-09-20T02:28:45.033Z,2.33
2022-09-20T02:31:23.019Z,3.20
2022-09-20T02:34:09.810Z,2.50
2022-09-20T02:36:48.854Z,2.47
2022-09-20T02:39:21.468Z,2.33
2022-09-20T02:42:00.419Z,2.70
2022-09-20T02:44:46.786Z,2.30
2022-09-20T02:47:23.418Z,2.87
2022-09-20T02:50:17.954Z,2.70
2022-09-20T02:52:55.753Z,2.37
2022-09-20T02:55:33.410Z,2.50
2022-09-20T02:58:10.623Z,2.27
2022-09-20T03:06:21.992Z,2.53
2022-09-20T03:08:57.314Z,2.73
2022-09-20T03:11:33.700Z,2.33
2022-09-20T03:14:17.927Z,2.70
2022-09-20T03:17:03.914Z,3.30
2022-09-20T03:31:14.616Z,2.20
2022-09-20T03:33:51.676Z,3.10
2022-09-20T03:36:43.548Z,3.03
2022-09-20T03:39:39.467Z,2.60
2022-09-20T03:42:19.114Z,2.67
2022-09-20T03:45:15.138Z,3.30
2022-09-20T03:48:11.930Z,3.03
2022-09-20T03:50:51.090Z,2.97
2022-09-20T03:53:51.841Z,4.13
2022-09-20T03:56:48.205Z,2.87
2022-09-20T03:59:31.555Z,2.80
2022-09-20T04:02:15.725Z,2.77
2022-09-20T04:04:51.997Z,3.63
2022-09-20T04:07:27.689Z,3.40
2022-09-20T04:10:37.255Z,3.33
2022-09-20T04:13:21.722Z,2.90
2022-09-20T04:16:03.136Z,3.93
2022-09-20T04:18:37.782Z,2.60
2022-09-20T04:21:11.910Z,2.60
2022-09-20T04:23:47.156Z,3.80
2022-09-20T04:26:21.981Z,3.20
2022-09-20T04:28:54.512Z,2.73
2022-09-20T04:31:34.499Z,3.20
2022-09-20T04:34:05.719Z,2.57
2022-09-20T04:36:57.604Z,2.77
2022-09-20T04:39:38.940Z,2.90
2022-09-20T04:42:38.496Z,2.80
2022-09-20T04:45:38.665Z,2.90
2022-09-20T04:48:49.505Z,2.70
2022-09-20T04:51:44.976Z,2.90
2022-09-20T04:55:01.791Z,3.30
2022-09-20T04:58:19.264Z,2.93
2022-09-20T05:01:19.271Z,2.87
2022-09-20T05:04:22.116Z,3.10
2022-09-20T05:07:27.677Z,2.57
2022-09-20T05:10:24.588Z,2.90
2022-09-20T05:13:15.953Z,3.43
2022-09-20T05:15:57.827Z,2.63
2022-09-20T05:19:13.951Z,2.70
2022-09-20T05:22:00.895Z,3.63
2022-09-20T05:24:52.659Z,3.53
2022-09-20T05:27:34.724Z,3.50
2022-09-20T05:30:12.137Z,3.27
2022-09-20T05:32:48.578Z,3.07
2022-09-20T05:35:25.283Z,3.23
2022-09-20T05:38:03.116Z,3.33
2022-09-20T05:40:36.349Z,3.13
2022-09-20T05:43:12.342Z,3.10
2022-09-20T05:46:04.882Z,3.57
2022-09-20T05:48:41.961Z,3.67
2022-09-20T05:51:28.489Z,3.30
2022-09-20T05:54:27.342Z,3.10
2022-09-20T05:57:05.530Z,3.57
2022-09-20T05:59:49.335Z,3.43
2022-09-20T06:02:29.555Z,3.40
2022-09-20T06:14:09.312Z,3.60
2022-09-20T06:16:48.009Z,4.63
2022-09-20T06:19:26.475Z,4.60
2022-09-20T06:21:57.616Z,4.50
2022-09-20T06:24:39.295Z,3.23
2022-09-20T06:27:11.940Z,3.10
2022-09-20T06:29:45.811Z,2.57
2022-09-20T06:32:18.018Z,2.47
2022-09-20T06:34:48.484Z,2.67
2022-09-20T06:38:01.252Z,2.30
2022-09-20T06:40:58.640Z,2.70
2022-09-20T06:43:31.008Z,2.70
2022-09-20T06:45:59.086Z,2.60
2022-09-20T06:48:27.208Z,2.10
2022-09-20T06:50:57.241Z,2.33
2022-09-20T06:53:31.228Z,1.90
2022-09-20T06:55:59.856Z,2.33
2022-09-20T06:58:28.264Z,2.60
2022-09-20T07:00:56.476Z,2.05
2022-09-20T07:03:24.596Z,2.20
2022-09-20T07:05:52.592Z,2.30
2022-09-20T07:08:21.981Z,2.47
2022-09-20T07:10:50.933Z,2.55
2022-09-20T07:13:20.897Z,2.60
2022-09-20T07:15:49.091Z,2.38
2022-09-20T07:18:17.256Z,2.27
2022-09-20T07:20:45.331Z,2.63
2022-09-20T07:23:15.666Z,2.50
2022-09-20T07:25:45.118Z,2.55
2022-09-20T07:28:13.133Z,1.88
2022-09-20T07:30:41.130Z,2.70
2022-09-20T07:33:09.962Z,2.22
2022-09-20T07:35:37.973Z,2.90
2022-09-20T07:38:05.988Z,2.35
2022-09-20T07:40:34.036Z,2.90
2022-09-20T07:43:03.429Z,2.80
2022-09-20T07:45:32.156Z,2.30
2022-09-20T07:48:02.572Z,2.87
2022-09-20T07:50:30.565Z,2.17
2022-09-20T07:52:58.605Z,2.33
2022-09-20T07:55:26.673Z,2.17
2022-09-20T07:57:55.646Z,2.37
2022-09-20T08:00:25.029Z,2.20
2022-09-20T08:03:00.313Z,1.90
2022-09-20T08:05:28.589Z,2.50
2022-09-20T08:07:56.921Z,2.17
2022-09-20T08:10:25.333Z,2.07
2022-09-20T08:15:43.379Z,1.65
2022-09-20T08:18:13.389Z,1.45
2022-09-20T08:20:41.362Z,1.83
2022-09-20T08:23:22.952Z,1.58
2022-09-20T08:25:51.664Z,1.60
2022-09-20T08:28:19.809Z,1.48
2022-09-20T08:30:49.255Z,1.38
2022-09-20T08:33:17.252Z,1.10
2022-09-20T08:35:45.396Z,1.40
2022-09-20T08:41:05.850Z,1.13
2022-09-20T08:43:38.540Z,1.10
2022-09-20T08:46:11.437Z,1.33
2022-09-20T08:48:39.661Z,1.30
2022-09-20T08:51:10.466Z,1.63
2022-09-20T08:53:48.978Z,0.90
2022-09-20T08:56:17.681Z,1.25
2022-09-20T08:58:46.459Z,1.20
2022-09-20T09:01:23.086Z,0.90
2022-09-20T09:03:52.517Z,0.90
2022-09-20T09:06:23.120Z,1.00
2022-09-20T09:08:53.722Z,1.00
2022-09-20T09:11:23.519Z,1.00
2022-09-20T09:13:55.563Z,1.33
2022-09-20T09:16:34.660Z,1.00
2022-09-20T09:19:33.282Z,0.70
2022-09-20T09:22:03.443Z,1.13
2022-09-20T09:24:32.241Z,1.37
2022-09-20T09:27:10.554Z,1.13
2022-09-20T09:29:51.407Z,0.97
2022-09-20T09:32:24.810Z,0.90
2022-09-20T09:34:52.886Z,1.33
2022-09-20T09:37:29.096Z,1.10
2022-09-20T09:40:16.546Z,1.30
2022-09-20T09:42:56.238Z,1.30
2022-09-20T09:45:36.150Z,1.00
2022-09-20T09:48:20.322Z,1.40
2022-09-20T09:50:48.766Z,1.40
2022-09-20T09:53:20.771Z,1.33
2022-09-20T09:56:14.269Z,1.50
2022-09-20T09:58:58.392Z,1.63
2022-09-20T10:01:36.370Z,1.50
2022-09-20T10:04:16.974Z,2.03
2022-09-20T10:06:52.451Z,1.13
2022-09-20T10:09:41.529Z,1.50
2022-09-20T10:12:21.976Z,1.97
2022-09-20T10:15:03.919Z,1.20
2022-09-20T10:17:45.000Z,1.47
2022-09-20T10:20:35.545Z,1.00
2022-09-20T10:26:08.038Z,1.00
2022-09-20T10:28:50.809Z,0.80
2022-09-20T10:31:32.367Z,0.70
2022-09-20T10:34:29.483Z,0.47
2022-09-20T10:37:00.470Z,0.88
2022-09-20T10:39:32.923Z,0.70
2022-09-20T10:42:28.419Z,0.57
2022-09-20T10:45:08.936Z,0.63
2022-09-20T10:59:16.509Z,0.60
2022-09-20T11:01:55.250Z,0.88
2022-09-20T11:04:41.589Z,0.85
2022-09-20T11:07:16.382Z,0.40
2022-09-20T11:09:50.015Z,0.88
2022-09-20T11:12:24.793Z,0.68
2022-09-20T11:14:58.297Z,0.63
2022-09-20T11:17:31.819Z,0.60
2022-09-20T11:20:07.460Z,0.63
2022-09-20T11:22:41.947Z,0.65
2022-09-20T11:25:20.855Z,0.65
2022-09-20T11:27:54.294Z,0.65
2022-09-20T11:30:25.069Z,1.10
2022-09-20T11:32:57.958Z,0.90
2022-09-20T11:35:34.475Z,1.05
2022-09-20T11:38:11.189Z,0.82
2022-09-20T11:40:44.181Z,0.70
2022-09-20T11:43:14.166Z,0.82
2022-09-20T11:45:45.958Z,0.75
2022-09-20T11:48:21.663Z,0.63
2022-09-20T11:51:17.718Z,0.80
2022-09-20T11:54:07.209Z,0.75
2022-09-20T11:56:35.580Z,0.70
2022-09-20T11:59:07.292Z,0.70
2022-09-20T12:01:39.782Z,0.95
2022-09-20T12:07:08.957Z,1.60
2022-09-20T12:09:42.099Z,0.75
2022-09-20T12:12:28.303Z,0.93
2022-09-20T12:14:57.621Z,1.00
2022-09-20T12:18:09.343Z,0.57
2022-09-20T12:21:16.623Z,0.40
2022-09-20T12:24:09.660Z,0.68
2022-09-20T12:26:44.039Z,1.30
2022-09-20T12:29:54.290Z,1.10
2022-09-20T12:32:41.442Z,1.08
2022-09-20T12:35:57.888Z,0.70
2022-09-20T12:38:54.653Z,0.80
2022-09-20T12:41:28.260Z,0.70
2022-09-20T12:44:01.957Z,0.50
2022-09-20T12:46:41.343Z,0.68
2022-09-20T12:49:53.458Z,0.50
2022-09-20T12:52:51.263Z,0.63
2022-09-20T12:55:43.762Z,0.90
2022-09-20T12:58:25.377Z,0.80
2022-09-20T13:01:34.031Z,0.85
2022-09-20T13:04:55.354Z,0.82
2022-09-20T13:07:49.206Z,0.57
2022-09-20T13:10:30.297Z,0.90
2022-09-20T13:13:04.852Z,0.47
2022-09-20T13:15:35.607Z,0.70
2022-09-20T13:18:04.462Z,0.50
2022-09-20T13:20:35.166Z,1.30
2022-09-20T13:23:06.347Z,1.05
2022-09-20T13:25:35.866Z,1.02
2022-09-20T13:28:10.043Z,0.95
2022-09-20T13:30:40.524Z,2.05
2022-09-20T13:33:24.575Z,1.13
2022-09-20T13:35:57.159Z,0.75
2022-09-20T13:38:30.064Z,0.85
2022-09-20T13:41:06.177Z,0.95
2022-09-20T13:43:39.636Z,1.23
2022-09-20T13:46:12.663Z,1.38
2022-09-20T13:48:41.002Z,1.10
2022-09-20T13:51:19.045Z,0.65
2022-09-20T13:53:47.941Z,1.15
2022-09-20T13:56:21.755Z,0.85
2022-09-20T13:58:52.717Z,1.00
2022-09-20T14:01:29.214Z,0.93
2022-09-20T14:04:07.835Z,0.75
2022-09-20T14:06:36.643Z,0.70
2022-09-20T14:09:11.080Z,0.97
2022-09-20T14:11:41.060Z,0.90
2022-09-20T14:14:12.381Z,0.83
2022-09-20T14:16:44.991Z,0.60
2022-09-20T14:19:15.601Z,0.70
2022-09-20T14:21:44.622Z,0.60
2022-09-20T14:24:30.128Z,0.70
2022-09-20T14:27:07.864Z,0.88
2022-09-20T14:29:43.195Z,0.57
2022-09-20T14:32:23.264Z,0.73
2022-09-20T14:35:00.866Z,0.77
2022-09-20T14:37:31.645Z,0.55
2022-09-20T14:40:01.901Z,1.20
2022-09-20T14:42:34.888Z,0.35
2022-09-20T14:45:05.302Z,1.00
2022-09-20T14:47:38.791Z,1.00
2022-09-20T14:50:24.799Z,0.60
2022-09-20T14:53:22.262Z,0.88
2022-09-20T14:55:59.392Z,0.43
2022-09-20T14:58:27.525Z,0.63
2022-09-20T15:01:01.660Z,1.00
2022-09-20T15:03:33.320Z,0.60
2022-09-20T15:06:01.465Z,1.00
2022-09-20T15:08:29.600Z,0.63
2022-09-20T15:10:57.657Z,1.00
2022-09-20T15:13:26.010Z,0.77
2022-09-20T15:15:56.324Z,0.70
2022-09-20T15:18:27.386Z,0.80
2022-09-20T15:20:56.319Z,0.70
2022-09-20T15:23:24.692Z,0.67
2022-09-20T15:25:54.369Z,0.70
2022-09-20T15:28:22.748Z,0.70
2022-09-20T15:30:52.291Z,0.80
2022-09-20T15:33:23.023Z,0.73
2022-09-20T15:35:51.299Z,0.97
2022-09-20T15:38:20.475Z,1.17
2022-09-20T15:40:52.145Z,0.80
2022-09-20T15:43:27.761Z,0.70
2022-09-20T15:46:00.614Z,0.63
2022-09-20T15:48:31.476Z,0.90
2022-09-20T15:51:03.970Z,0.50
2022-09-20T15:53:34.249Z,0.70
2022-09-20T15:56:04.344Z,1.03
2022-09-20T15:58:36.169Z,0.70
2022-09-20T16:01:07.010Z,0.60
2022-09-20T16:03:37.361Z,1.20
2022-09-20T16:06:08.206Z,1.03
2022-09-20T16:08:37.809Z,1.17
2022-09-20T16:11:06.878Z,0.77
2022-09-20T16:13:36.351Z,1.00
2022-09-20T16:16:05.055Z,0.60
2022-09-20T16:18:50.817Z,0.80
2022-09-20T16:21:20.720Z,0.73
2022-09-20T16:23:50.661Z,0.93
2022-09-20T16:26:19.765Z,1.00
2022-09-20T16:28:48.059Z,1.00
2022-09-20T16:31:34.749Z,0.70
2022-09-20T16:34:03.449Z,0.90
2022-09-20T16:36:33.417Z,0.90
2022-09-20T16:39:01.566Z,0.83
2022-09-20T16:41:31.070Z,0.80
2022-09-20T16:43:59.282Z,0.80
2022-09-20T16:46:28.228Z,0.73
2022-09-20T16:48:57.163Z,1.03
2022-09-20T16:51:26.803Z,1.20
2022-09-20T16:53:56.574Z,1.10
2022-09-20T16:56:26.388Z,1.13
2022-09-20T16:58:55.233Z,0.83
2022-09-20T17:01:24.202Z,1.27
2022-09-20T17:03:52.728Z,1.07
2022-09-20T17:06:20.846Z,1.00
2022-09-20T17:08:56.816Z,1.00
2022-09-20T17:11:31.312Z,0.80
2022-09-20T17:14:00.165Z,0.80
2022-09-20T17:16:30.057Z,0.57
2022-09-20T17:18:59.783Z,0.97
2022-09-20T17:21:30.952Z,1.40
2022-09-20T17:24:00.632Z,0.90
2022-09-20T17:26:33.175Z,0.90
2022-09-20T17:29:02.645Z,0.90
2022-09-20T17:31:33.670Z,0.77
2022-09-20T17:34:02.321Z,0.80
2022-09-20T17:36:32.723Z,0.80
2022-09-20T17:39:04.344Z,0.63
2022-09-20T17:41:36.621Z,0.97
2022-09-20T17:44:08.055Z,0.70
2022-09-20T17:46:37.244Z,0.70
2022-09-20T17:49:07.638Z,0.77
2022-09-20T17:51:37.230Z,1.00
2022-09-20T17:54:05.862Z,1.10
2022-09-20T17:56:35.770Z,0.93
2022-09-20T17:59:05.722Z,0.80
2022-09-20T18:01:37.629Z,0.70
2022-09-20T18:04:07.334Z,1.20
2022-09-20T18:06:38.526Z,0.90
2022-09-20T18:09:08.068Z,1.23
2022-09-20T18:11:39.110Z,0.90
2022-09-20T18:14:10.272Z,0.80
2022-09-20T18:16:38.875Z,1.17
2022-09-20T18:19:07.474Z,0.60
2022-09-20T18:21:36.363Z,0.80
2022-09-20T18:24:06.931Z,1.23
2022-09-20T18:26:35.656Z,1.00
2022-09-20T18:29:06.850Z,0.77
2022-09-20T18:31:42.198Z,0.70
2022-09-20T18:34:15.403Z,1.00
2022-09-20T18:36:43.763Z,0.90
2022-09-20T18:39:13.063Z,1.33
2022-09-20T18:41:44.129Z,1.20
2022-09-20T18:44:14.675Z,1.00
2022-09-20T18:46:42.997Z,1.10
2022-09-20T18:49:13.598Z,1.33
2022-09-20T18:51:41.868Z,1.10
2022-09-20T18:54:11.043Z,1.13
2022-09-20T18:56:40.485Z,1.47
2022-09-20T18:59:14.575Z,1.20
2022-09-20T19:02:06.286Z,1.00
2022-09-20T19:04:49.285Z,0.73
2022-09-20T19:07:25.276Z,1.10
2022-09-20T19:10:00.990Z,1.00
2022-09-20T19:12:35.124Z,1.07
2022-09-20T19:15:19.640Z,1.10
2022-09-20T19:18:03.652Z,0.97
2022-09-20T19:20:36.115Z,1.60
2022-09-20T19:23:17.086Z,1.50
2022-09-20T19:25:48.026Z,1.17
2022-09-20T19:28:17.084Z,1.23
2022-09-20T19:30:47.345Z,1.77
2022-09-20T19:33:19.335Z,2.97
2022-09-20T19:35:51.061Z,2.70
2022-09-20T19:38:35.368Z,2.30
2022-09-20T19:41:13.027Z,2.40
2022-09-20T19:43:54.091Z,1.93
2022-09-20T19:47:01.548Z,1.33
2022-09-20T19:49:41.220Z,1.23
2022-09-20T19:52:13.369Z,1.40
2022-09-20T19:54:46.283Z,1.40
2022-09-20T19:57:20.419Z,1.50
2022-09-20T19:59:50.598Z,1.07
2022-09-20T20:02:19.498Z,1.10
2022-09-20T20:04:49.385Z,0.90
2022-09-20T20:07:27.783Z,1.17
2022-09-20T20:10:04.388Z,1.10
2022-09-20T20:12:37.009Z,1.27
2022-09-20T20:15:16.154Z,1.93
2022-09-20T20:17:55.183Z,1.03
2022-09-20T20:20:30.226Z,1.03
2022-09-20T20:23:28.022Z,1.23
2022-09-20T20:26:02.978Z,1.27
2022-09-20T20:28:31.550Z,1.60
2022-09-20T20:31:00.814Z,2.23
2022-09-20T20:33:29.414Z,1.90
2022-09-20T20:36:00.935Z,2.03
2022-09-20T20:38:37.250Z,2.00
2022-09-20T20:41:07.695Z,1.80
2022-09-20T20:43:38.140Z,2.00
2022-09-20T20:46:07.945Z,2.17
2022-09-20T20:48:36.875Z,1.63
2022-09-20T20:51:09.568Z,2.10
2022-09-20T20:53:39.360Z,2.70
2022-09-20T20:56:09.641Z,2.00
2022-09-20T20:58:40.903Z,1.90
2022-09-20T21:01:11.467Z,2.50
2022-09-20T21:03:41.689Z,2.03
2022-09-20T21:06:11.923Z,2.40
2022-09-20T21:08:43.030Z,2.00
2022-09-20T21:11:15.893Z,2.30
2022-09-20T21:13:44.251Z,2.70
2022-09-20T21:16:15.276Z,2.30
2022-09-20T21:18:45.306Z,2.30
2022-09-20T21:21:19.924Z,2.30
2022-09-20T21:23:49.370Z,2.20
2022-09-20T21:26:17.899Z,2.17
2022-09-20T21:28:48.863Z,2.40
2022-09-20T21:31:17.028Z,2.20
2022-09-20T21:33:45.133Z,2.80
2022-09-20T21:36:14.449Z,2.30
2022-09-20T21:38:45.391Z,1.90
2022-09-20T21:41:14.949Z,2.50
2022-09-20T21:43:44.730Z,1.73
2022-09-20T21:46:13.500Z,2.27
2022-09-20T21:48:42.113Z,1.90
2022-09-20T21:51:12.244Z,2.20
2022-09-20T21:53:40.499Z,2.13
2022-09-20T21:56:12.559Z,2.93
2022-09-20T21:58:41.344Z,1.93
2022-09-20T22:12:43.189Z,2.03
2022-09-20T22:15:11.946Z,1.50
2022-09-20T22:17:40.096Z,1.70
2022-09-20T22:20:09.478Z,2.07
2022-09-20T22:22:38.197Z,1.60
2022-09-20T22:28:59.217Z,1.80
2022-09-20T22:31:29.317Z,2.00
2022-09-20T22:34:00.035Z,2.00
2022-09-20T22:36:31.472Z,1.83
2022-09-20T22:38:59.955Z,2.63
2022-09-20T22:41:28.813Z,2.10
2022-09-20T22:43:58.565Z,1.70
2022-09-20T22:46:28.641Z,1.80
2022-09-20T22:48:57.274Z,1.70
2022-09-20T22:51:27.800Z,1.70
2022-09-20T22:53:56.406Z,1.60
2022-09-20T22:56:25.844Z,1.90
2022-09-20T22:58:56.211Z,1.70
2022-09-20T23:01:28.102Z,2.07
2022-09-20T23:03:58.019Z,1.70
2022-09-20T23:06:28.614Z,1.70
2022-09-20T23:08:59.938Z,2.23
2022-09-20T23:11:29.370Z,1.83
2022-09-20T23:13:59.410Z,2.13
2022-09-20T23:16:30.602Z,1.70
2022-09-20T23:19:00.576Z,2.10
2022-09-20T23:21:30.352Z,2.20
2022-09-20T23:27:39.591Z,1.90
2022-09-20T23:30:08.969Z,2.10
2022-09-20T23:32:38.723Z,2.40
2022-09-20T23:35:07.895Z,2.30
2022-09-20T23:37:36.275Z,1.90
2022-09-20T23:40:05.084Z,1.90
2022-09-20T23:42:33.462Z,2.43
2022-09-20T23:45:01.816Z,2.00
2022-09-20T23:47:30.185Z,2.10
2022-09-20T23:49:59.948Z,1.47
2022-09-20T23:52:28.320Z,1.77
